Aviation Digital Data Service (ADDS)

Output produced by METARs form (1904 UTC 29 May 2017)
found at http://www.aviationweather.gov/adds/metars/
 
MRLB 291700Z 2918/3018 09007KT 9999 FEW045 TX32/2920Z TN23/3011Z 
     TEMPO 3001/3006 VRB02KT RA FEW030 BKN100 
     BECMG 3007/3009 06005KT 
     TEMPO 3013/3018 RA SCT030 OVC100
       
MROC 291700Z 2918/3018 24007KT 9999 FEW035 TX29/2918Z TN20/3011Z 
     TEMPO 2919/2923 5000 TSRA SCT015CB BKN025 
     BECMG 3001/3004 VRB02KT RA BR FEW002 BKN010 
     TEMPO 3006/3013 08006KT 
     PROB30 3009/3011 00000KT 1500 BR SCT002 BKN020 
     FM301500 22006KT 9999 FEW035
       
MRLM 291700Z 2918/3018 26005KT 9999 SCT030 TX30/2920Z TN24/3011Z 
     BECMG 2921/2923 RA BKN020 
     TEMPO 3008/3012 RA OVC020 
     BECMG 3014/3016 06005KT FEW030 BKN120
       
MRPV 291700Z 2918/3018 07004KT 9999 FEW030 BKN100 TX26/2917Z TN19/3011Z 
     FM291800 27006KT 
     BECMG 2919/2922 3000 SHRA FEW020TCU 
     BECMG 2922/2902 5000 RA BR BKN015 
     FM300200 10005KT 
     BECMG 3017/3018 27005KT